createdAt,value
2018-11-23T00:01:42.128Z,43.07
2018-11-23T00:04:10.353Z,41.60
2018-11-23T00:06:38.544Z,45.47
2018-11-23T00:09:07.163Z,42.20
2018-11-23T00:11:35.304Z,39.13
2018-11-23T00:14:03.730Z,38.23
2018-11-23T00:16:31.850Z,41.23
2018-11-23T00:19:00.012Z,43.50
2018-11-23T00:21:28.152Z,43.07
2018-11-23T00:23:56.316Z,43.27
2018-11-23T00:26:24.461Z,46.57
2018-11-23T00:28:52.642Z,44.27
2018-11-23T00:31:21.891Z,45.30
2018-11-23T00:33:50.014Z,41.60
2018-11-23T00:36:18.217Z,44.87
2018-11-23T00:38:46.318Z,47.50
2018-11-23T00:41:14.443Z,44.57
2018-11-23T00:43:42.588Z,44.77
2018-11-23T00:46:10.681Z,43.20
2018-11-23T00:48:38.939Z,46.93
2018-11-23T00:51:07.166Z,47.97
2018-11-23T00:53:35.317Z,46.23
2018-11-23T00:56:03.459Z,46.53
2018-11-23T00:58:31.562Z,47.10
2018-11-23T01:00:59.698Z,47.53
2018-11-23T01:03:27.905Z,44.20
2018-11-23T01:05:56.017Z,46.13
2018-11-23T01:08:24.214Z,48.13
2018-11-23T01:10:52.379Z,52.70
2018-11-23T01:13:20.505Z,51.40
2018-11-23T01:15:48.882Z,50.27
2018-11-23T01:18:17.746Z,52.07
2018-11-23T01:20:45.865Z,53.43
2018-11-23T01:23:13.980Z,48.10
2018-11-23T01:25:42.188Z,52.43
2018-11-23T01:28:10.300Z,50.33
2018-11-23T01:30:38.500Z,48.97
2018-11-23T01:33:06.639Z,48.63
2018-11-23T01:35:34.749Z,53.17
2018-11-23T01:38:02.925Z,51.20
2018-11-23T01:40:31.076Z,56.77
2018-11-23T01:42:59.248Z,53.30
2018-11-23T01:45:27.388Z,52.30
2018-11-23T01:47:55.595Z,53.07
2018-11-23T01:50:23.757Z,55.93
2018-11-23T01:52:51.903Z,48.37
2018-11-23T01:55:20.091Z,49.10
2018-11-23T01:57:48.180Z,55.67
2018-11-23T02:00:16.722Z,51.03
2018-11-23T02:02:44.930Z,54.40
2018-11-23T02:05:13.062Z,54.87
2018-11-23T02:07:41.593Z,53.43
2018-11-23T02:10:10.979Z,52.33
2018-11-23T02:12:39.138Z,52.40
2018-11-23T02:15:09.873Z,56.53
2018-11-23T02:17:38.001Z,59.30
2018-11-23T02:20:08.203Z,59.43
2018-11-23T02:22:36.378Z,55.77
2018-11-23T02:25:05.091Z,54.50
2018-11-23T02:27:33.512Z,54.73
2018-11-23T02:30:01.695Z,52.20
2018-11-23T02:32:30.167Z,56.07
2018-11-23T02:34:58.274Z,59.47
2018-11-23T02:37:26.418Z,56.47
2018-11-23T02:39:54.646Z,56.80
2018-11-23T02:42:22.797Z,56.90
2018-11-23T02:44:51.057Z,53.07
2018-11-23T02:47:19.170Z,51.00
2018-11-23T02:49:47.250Z,49.23
2018-11-23T02:52:15.374Z,49.00
2018-11-23T02:54:43.455Z,53.63
2018-11-23T02:57:11.539Z,56.23
2018-11-23T02:59:39.677Z,59.67
2018-11-23T03:02:07.838Z,53.63
2018-11-23T03:04:36.022Z,52.47
2018-11-23T03:07:04.542Z,51.17
2018-11-23T03:09:32.662Z,50.67
2018-11-23T03:12:00.854Z,50.80
2018-11-23T03:14:28.969Z,60.33
2018-11-23T03:16:57.135Z,53.20
2018-11-23T03:19:25.297Z,51.40
2018-11-23T03:21:53.451Z,59.20
2018-11-23T03:24:21.669Z,57.63
2018-11-23T03:26:49.834Z,59.23
2018-11-23T03:29:17.982Z,46.77
2018-11-23T03:31:46.095Z,58.00
2018-11-23T03:34:14.209Z,52.87
2018-11-23T03:36:42.539Z,55.87
2018-11-23T03:39:10.683Z,60.17
2018-11-23T03:41:38.952Z,57.27
2018-11-23T03:44:07.066Z,52.13
2018-11-23T03:46:35.201Z,55.63
2018-11-23T03:49:03.810Z,53.43
2018-11-23T03:51:31.951Z,53.80
2018-11-23T03:54:00.058Z,60.40
2018-11-23T03:56:28.295Z,52.70
2018-11-23T03:58:56.414Z,50.10
2018-11-23T04:01:24.521Z,53.13
2018-11-23T04:03:52.607Z,59.07
2018-11-23T04:06:20.785Z,55.07
2018-11-23T04:08:48.872Z,55.33
2018-11-23T04:11:17.113Z,56.60
2018-11-23T04:13:45.227Z,54.60
2018-11-23T04:16:13.382Z,64.90
2018-11-23T04:18:41.518Z,52.93
2018-11-23T04:21:09.649Z,56.17
2018-11-23T04:23:37.781Z,55.40
2018-11-23T04:26:06.136Z,46.73
2018-11-23T04:28:34.249Z,56.83
2018-11-23T04:31:02.378Z,59.50
2018-11-23T04:33:30.498Z,61.80
2018-11-23T04:35:58.650Z,64.47
2018-11-23T04:38:26.772Z,68.90
2018-11-23T04:40:54.891Z,57.57
2018-11-23T04:43:23.010Z,61.43
2018-11-23T04:45:51.210Z,71.07
2018-11-23T04:48:19.370Z,70.20
2018-11-23T04:50:47.572Z,67.37
2018-11-23T04:53:15.674Z,59.03
2018-11-23T04:55:43.826Z,66.50
2018-11-23T04:58:11.992Z,68.03
2018-11-23T05:00:40.142Z,76.23
2018-11-23T05:03:08.434Z,83.63
2018-11-23T05:05:36.585Z,78.20
2018-11-23T05:08:05.107Z,79.73
2018-11-23T05:10:33.480Z,78.63
2018-11-23T05:13:01.642Z,74.87
2018-11-23T05:15:29.755Z,83.60
2018-11-23T05:17:57.995Z,85.60
2018-11-23T05:20:26.143Z,70.63
2018-11-23T05:22:54.292Z,76.80
2018-11-23T05:25:22.427Z,66.63
2018-11-23T05:27:50.813Z,69.80
2018-11-23T05:30:18.896Z,69.07
2018-11-23T05:32:47.038Z,68.07
2018-11-23T05:35:15.242Z,69.27
2018-11-23T05:37:43.386Z,61.70
2018-11-23T05:40:12.766Z,60.90
2018-11-23T05:42:40.896Z,59.57
2018-11-23T05:45:10.561Z,59.27
2018-11-23T05:47:38.664Z,67.60
2018-11-23T05:50:10.533Z,58.23
2018-11-23T05:52:38.681Z,61.50
2018-11-23T05:55:07.198Z,63.20
2018-11-23T05:57:35.326Z,56.37
2018-11-23T06:00:05.002Z,63.33
2018-11-23T06:02:33.117Z,68.93
2018-11-23T06:05:01.260Z,54.83
2018-11-23T06:07:29.417Z,64.30
2018-11-23T06:09:57.572Z,61.43
2018-11-23T06:12:25.942Z,65.07
2018-11-23T06:14:54.101Z,59.13
2018-11-23T06:17:22.218Z,69.20
2018-11-23T06:19:50.340Z,59.47
2018-11-23T06:22:18.500Z,63.30
2018-11-23T06:24:46.657Z,53.43
2018-11-23T06:27:14.873Z,67.67
2018-11-23T06:29:42.968Z,60.80
2018-11-23T06:32:22.270Z,61.03
2018-11-23T06:34:50.383Z,58.67
2018-11-23T06:37:18.507Z,69.80
2018-11-23T06:39:46.675Z,60.73
2018-11-23T06:42:14.869Z,60.13
2018-11-23T06:44:43.028Z,61.73
2018-11-23T06:47:11.172Z,63.30
2018-11-23T06:49:39.285Z,73.73
2018-11-23T06:52:07.427Z,59.17
2018-11-23T06:54:35.546Z,64.63
2018-11-23T06:57:03.843Z,69.10
2018-11-23T06:59:31.999Z,72.73
2018-11-23T07:02:00.147Z,79.50
2018-11-23T07:04:28.264Z,79.30
2018-11-23T07:06:56.431Z,81.07
2018-11-23T07:09:24.560Z,76.67
2018-11-23T07:11:52.775Z,81.03
2018-11-23T07:14:20.923Z,77.77
2018-11-23T07:16:49.118Z,71.77
2018-11-23T07:19:17.275Z,75.73
2018-11-23T07:21:45.443Z,76.00
2018-11-23T07:24:13.614Z,76.07
2018-11-23T07:26:41.854Z,76.30
2018-11-23T07:29:09.994Z,69.77
2018-11-23T07:31:38.178Z,74.50
2018-11-23T07:34:06.301Z,70.10
2018-11-23T07:36:34.590Z,74.53
2018-11-23T07:39:03.718Z,80.43
2018-11-23T07:42:41.002Z,73.17
2018-11-23T07:45:09.152Z,67.17
2018-11-23T07:47:37.283Z,76.53
2018-11-23T07:50:07.366Z,65.77
2018-11-23T07:52:35.774Z,62.10
2018-11-23T07:55:05.050Z,66.30
2018-11-23T07:57:33.438Z,65.53
2018-11-23T08:00:01.606Z,64.60
2018-11-23T08:02:29.727Z,67.60
2018-11-23T08:04:57.942Z,68.93
2018-11-23T08:07:26.152Z,68.40
2018-11-23T08:09:54.239Z,65.03
2018-11-23T08:12:22.437Z,63.10
2018-11-23T08:14:50.584Z,64.60
2018-11-23T08:17:18.698Z,69.20
2018-11-23T08:19:47.429Z,59.43
2018-11-23T08:22:14.934Z,62.60
2018-11-23T08:24:43.045Z,60.83
2018-11-23T08:27:11.179Z,60.77
2018-11-23T08:29:39.298Z,55.97
2018-11-23T08:32:07.796Z,56.70
2018-11-23T08:34:35.909Z,57.30
2018-11-23T08:37:04.113Z,58.00
2018-11-23T08:39:32.326Z,57.60
2018-11-23T08:42:00.824Z,52.07
2018-11-23T08:44:28.973Z,56.50
2018-11-23T08:46:57.160Z,54.10
2018-11-23T08:49:25.331Z,52.43
2018-11-23T08:51:53.470Z,53.10
2018-11-23T08:54:21.593Z,48.93
2018-11-23T08:56:49.720Z,55.87
2018-11-23T08:59:17.829Z,49.20
2018-11-23T09:01:45.926Z,53.57
2018-11-23T09:04:14.049Z,51.37
2018-11-23T09:06:42.157Z,55.43
2018-11-23T09:09:10.488Z,54.27
2018-11-23T09:11:38.694Z,53.20
2018-11-23T09:14:07.081Z,58.80
2018-11-23T09:16:35.201Z,53.30
2018-11-23T09:19:03.423Z,55.87
2018-11-23T09:21:31.586Z,42.73
2018-11-23T09:23:59.752Z,55.53
2018-11-23T09:26:27.886Z,53.73
2018-11-23T09:28:56.066Z,50.90
2018-11-23T09:31:24.190Z,51.63
2018-11-23T09:33:52.302Z,46.83
2018-11-23T09:36:20.407Z,51.57
2018-11-23T09:38:48.677Z,55.50
2018-11-23T09:41:16.824Z,55.30
2018-11-23T09:43:45.036Z,60.30
2018-11-23T09:46:13.199Z,45.50
2018-11-23T09:48:41.564Z,54.07
2018-11-23T09:51:09.687Z,49.53
2018-11-23T09:53:37.830Z,52.70
2018-11-23T09:56:05.991Z,52.87
2018-11-23T09:58:34.231Z,54.90
2018-11-23T10:01:02.402Z,51.63
2018-11-23T10:03:30.621Z,51.60
2018-11-23T10:05:58.787Z,41.13
2018-11-23T10:08:26.880Z,50.53
2018-11-23T10:10:55.033Z,48.10
2018-11-23T10:13:23.375Z,53.27
2018-11-23T10:15:51.584Z,44.00
2018-11-23T10:18:19.683Z,49.93
2018-11-23T10:20:47.795Z,44.20
2018-11-23T10:23:15.902Z,42.80
2018-11-23T10:25:44.081Z,45.97
2018-11-23T10:28:12.177Z,46.30
2018-11-23T10:30:40.319Z,52.23
2018-11-23T10:33:08.458Z,41.33
2018-11-23T10:35:36.618Z,48.33
2018-11-23T10:38:04.857Z,38.73
2018-11-23T10:40:33.030Z,37.60
2018-11-23T10:43:01.124Z,40.27
2018-11-23T10:45:30.013Z,47.27
2018-11-23T10:47:58.235Z,38.53
2018-11-23T10:50:26.466Z,41.70
2018-11-23T10:52:54.617Z,37.37
2018-11-23T10:55:22.905Z,44.90
2018-11-23T10:57:51.219Z,41.97
2018-11-23T11:00:19.538Z,44.77
2018-11-23T11:02:48.120Z,45.30
2018-11-23T11:05:16.367Z,43.57
2018-11-23T11:07:44.604Z,40.77
2018-11-23T11:10:12.822Z,40.90
2018-11-23T11:12:41.042Z,46.33
2018-11-23T11:15:09.559Z,41.27
2018-11-23T11:17:37.709Z,38.40
2018-11-23T11:20:07.190Z,45.33
2018-11-23T11:22:35.398Z,39.70
2018-11-23T11:25:04.006Z,41.03
2018-11-23T11:27:32.311Z,39.70
2018-11-23T11:30:00.536Z,34.67
2018-11-23T11:32:28.790Z,37.73
2018-11-23T11:34:56.990Z,40.13
2018-11-23T11:37:25.063Z,44.03
2018-11-23T11:39:53.182Z,40.47
2018-11-23T11:42:21.299Z,35.90
2018-11-23T11:44:49.477Z,39.20
2018-11-23T11:47:17.709Z,41.60
2018-11-23T11:49:45.938Z,41.77
2018-11-23T11:52:14.037Z,35.77
2018-11-23T11:54:42.260Z,39.80
2018-11-23T11:57:10.491Z,40.10
2018-11-23T11:59:38.709Z,41.77
2018-11-23T12:02:10.118Z,34.90
2018-11-23T12:04:34.991Z,34.43
2018-11-23T12:07:03.329Z,40.23
2018-11-23T12:09:31.432Z,36.67
2018-11-23T12:11:59.716Z,35.63
2018-11-23T12:14:27.875Z,33.30
2018-11-23T12:16:56.065Z,37.27
2018-11-23T12:19:24.217Z,33.27
2018-11-23T12:21:52.342Z,33.43
2018-11-23T12:24:20.478Z,36.73
2018-11-23T12:26:48.717Z,37.53
2018-11-23T12:29:17.027Z,35.67
2018-11-23T12:31:45.233Z,33.93
2018-11-23T12:34:13.422Z,31.10
2018-11-23T12:36:41.956Z,34.03
2018-11-23T12:39:10.053Z,35.20
2018-11-23T12:41:45.094Z,33.27
2018-11-23T12:44:27.216Z,33.63
2018-11-23T12:46:55.673Z,32.47
2018-11-23T12:49:24.112Z,30.50
2018-11-23T12:51:52.317Z,30.83
2018-11-23T12:54:20.499Z,29.93
2018-11-23T12:56:48.696Z,23.77
2018-11-23T12:59:16.966Z,27.70
2018-11-23T13:01:45.100Z,33.00
2018-11-23T13:04:13.243Z,27.90
2018-11-23T13:06:41.404Z,31.00
2018-11-23T13:09:15.852Z,26.20
2018-11-23T13:11:44.004Z,34.60
2018-11-23T13:14:12.373Z,27.10
2018-11-23T13:16:40.654Z,25.93
2018-11-23T13:19:09.127Z,26.90
2018-11-23T13:21:37.285Z,26.10
2018-11-23T13:24:05.521Z,31.07
2018-11-23T13:26:33.676Z,27.57
2018-11-23T13:29:15.407Z,33.50
2018-11-23T13:31:31.016Z,26.33
2018-11-23T13:33:59.287Z,23.97
2018-11-23T13:36:27.445Z,23.93
2018-11-23T13:38:59.759Z,27.63
2018-11-23T13:41:27.946Z,22.80
2018-11-23T13:43:56.058Z,24.70
2018-11-23T13:46:24.189Z,27.20
2018-11-23T13:48:52.301Z,25.60
2018-11-23T13:51:20.441Z,25.03
2018-11-23T13:53:48.559Z,26.93
2018-11-23T13:56:16.727Z,26.07
2018-11-23T13:58:44.871Z,24.73
2018-11-23T14:01:13.025Z,30.70
2018-11-23T14:03:41.878Z,26.63
2018-11-23T14:06:09.997Z,27.00
2018-11-23T14:08:38.152Z,29.33
2018-11-23T14:11:06.348Z,24.37
2018-11-23T14:13:34.504Z,26.73
2018-11-23T14:16:02.650Z,27.57
2018-11-23T14:18:30.769Z,29.43
2018-11-23T14:20:59.053Z,28.87
2018-11-23T14:23:27.155Z,28.53
2018-11-23T14:25:55.293Z,29.07
2018-11-23T14:28:23.442Z,27.27
2018-11-23T14:30:51.811Z,27.10
2018-11-23T14:33:19.925Z,24.10
2018-11-23T14:35:48.011Z,27.97
2018-11-23T14:38:16.164Z,26.30
2018-11-23T14:40:44.355Z,25.33
2018-11-23T14:43:12.515Z,29.67
2018-11-23T14:45:40.658Z,26.10
2018-11-23T14:48:09.134Z,26.73
2018-11-23T14:50:37.399Z,26.17
2018-11-23T14:53:06.256Z,23.67
2018-11-23T14:55:34.453Z,28.93
2018-11-23T14:58:02.624Z,24.77
2018-11-23T15:00:30.730Z,26.00
2018-11-23T15:02:58.867Z,21.67
2018-11-23T15:05:26.954Z,22.67
2018-11-23T15:07:55.173Z,24.70
2018-11-23T15:10:23.876Z,21.70
2018-11-23T15:12:52.219Z,27.97
2018-11-23T15:15:20.348Z,25.93
2018-11-23T15:17:48.506Z,23.93
2018-11-23T15:20:18.518Z,24.23
2018-11-23T15:22:48.021Z,20.20
2018-11-23T15:25:16.175Z,25.37
2018-11-23T15:27:44.531Z,27.03
2018-11-23T15:30:14.258Z,26.03
2018-11-23T15:32:42.417Z,26.87
2018-11-23T15:35:10.633Z,22.97
2018-11-23T15:37:38.906Z,25.57
2018-11-23T15:40:13.174Z,21.87
2018-11-23T15:42:41.695Z,19.33
2018-11-23T15:45:10.675Z,20.23
2018-11-23T15:47:38.779Z,22.10
2018-11-23T15:50:08.882Z,20.00
2018-11-23T15:52:37.008Z,21.30
2018-11-23T15:55:09.484Z,21.90
2018-11-23T15:57:37.617Z,23.30
2018-11-23T16:00:09.448Z,24.20
2018-11-23T16:02:37.566Z,27.27
2018-11-23T16:05:06.472Z,29.40
2018-11-23T16:07:34.512Z,33.20
2018-11-23T16:10:02.721Z,31.17
2018-11-23T16:12:31.004Z,32.13
2018-11-23T16:14:59.382Z,26.67
2018-11-23T16:17:27.768Z,32.90
2018-11-23T16:19:55.865Z,34.43
2018-11-23T16:22:24.129Z,38.83
2018-11-23T16:24:52.462Z,34.27
2018-11-23T16:27:20.628Z,36.90
2018-11-23T16:29:50.535Z,40.97
2018-11-23T16:32:18.662Z,44.27
2018-11-23T16:34:46.779Z,47.17
2018-11-23T16:37:14.961Z,39.80
2018-11-23T16:39:43.082Z,43.23
2018-11-23T16:42:11.267Z,40.27
2018-11-23T16:44:39.377Z,40.27
2018-11-23T16:47:07.667Z,47.43
2018-11-23T16:49:35.818Z,43.43
2018-11-23T16:52:04.837Z,48.93
2018-11-23T16:54:32.934Z,54.63
2018-11-23T16:57:01.090Z,47.97
2018-11-23T16:59:29.290Z,53.40
2018-11-23T17:01:57.483Z,57.10
2018-11-23T17:04:25.614Z,46.63
2018-11-23T17:06:53.781Z,47.10
2018-11-23T17:09:21.926Z,57.07
2018-11-23T17:11:50.112Z,47.17
2018-11-23T17:14:18.277Z,51.00
2018-11-23T17:16:46.428Z,52.83
2018-11-23T17:19:14.625Z,51.93
2018-11-23T17:21:42.879Z,52.20
2018-11-23T17:24:11.295Z,47.93
2018-11-23T17:26:39.443Z,49.90
2018-11-23T17:29:07.624Z,49.37
2018-11-23T17:31:38.099Z,55.70
2018-11-23T17:34:06.247Z,48.27
2018-11-23T17:36:34.390Z,54.57
2018-11-23T17:39:02.617Z,54.40
2018-11-23T17:41:30.735Z,55.20
2018-11-23T17:43:58.941Z,53.67
2018-11-23T17:46:27.203Z,55.63
2018-11-23T17:48:55.579Z,50.23
2018-11-23T17:51:23.745Z,57.97
2018-11-23T17:53:51.868Z,56.70
2018-11-23T17:56:19.971Z,49.73
2018-11-23T17:58:48.192Z,52.63
2018-11-23T18:01:16.287Z,51.53
2018-11-23T18:03:44.378Z,51.10
2018-11-23T18:06:12.677Z,50.67
2018-11-23T18:08:41.201Z,52.13
2018-11-23T18:11:09.802Z,53.57
2018-11-23T18:13:38.603Z,50.20
2018-11-23T18:16:06.771Z,57.93
2018-11-23T18:18:34.976Z,54.37
2018-11-23T18:21:03.137Z,55.70
2018-11-23T18:23:31.260Z,57.87
2018-11-23T18:25:59.685Z,54.23
2018-11-23T18:28:29.024Z,57.00
2018-11-23T18:30:57.251Z,55.83
2018-11-23T18:33:26.451Z,51.33
2018-11-23T18:35:55.522Z,52.43
2018-11-23T18:38:23.684Z,56.90
2018-11-23T18:40:52.031Z,48.60
2018-11-23T18:43:20.735Z,49.90
2018-11-23T18:45:49.670Z,57.10
2018-11-23T18:48:17.878Z,56.70
2018-11-23T18:50:46.522Z,52.13
2018-11-23T18:53:14.741Z,54.90
2018-11-23T18:55:42.969Z,46.37
2018-11-23T18:58:11.126Z,48.53
2018-11-23T19:00:39.374Z,48.67
2018-11-23T19:03:07.519Z,46.10
2018-11-23T19:05:35.865Z,50.53
2018-11-23T19:08:04.096Z,55.30
2018-11-23T19:10:32.216Z,47.00
2018-11-23T19:13:00.492Z,47.90
2018-11-23T19:15:28.590Z,50.13
2018-11-23T19:17:56.779Z,44.53
2018-11-23T19:20:24.929Z,48.77
2018-11-23T19:22:54.016Z,48.20
2018-11-23T19:25:22.606Z,47.97
2018-11-23T19:27:50.732Z,47.23
2018-11-23T19:30:23.493Z,53.83
2018-11-23T19:32:48.583Z,47.57
2018-11-23T19:35:16.829Z,49.00
2018-11-23T19:37:45.203Z,47.67
2018-11-23T19:40:14.269Z,46.77
2018-11-23T19:42:43.200Z,46.43
2018-11-23T19:45:15.768Z,41.97
2018-11-23T19:47:44.123Z,46.10
2018-11-23T19:50:14.583Z,46.47
2018-11-23T19:52:42.681Z,46.33
2018-11-23T19:55:11.999Z,46.77
2018-11-23T19:57:40.275Z,46.10
2018-11-23T20:00:16.561Z,49.93
2018-11-23T20:02:44.839Z,51.33
2018-11-23T20:05:13.077Z,45.87
2018-11-23T20:07:42.602Z,50.03
2018-11-23T20:10:15.208Z,46.63
2018-11-23T20:12:44.092Z,49.77
2018-11-23T20:15:15.503Z,46.43
2018-11-23T20:17:43.784Z,48.73
2018-11-23T20:20:13.846Z,51.40
2018-11-23T20:22:42.445Z,47.70
2018-11-23T20:25:13.831Z,42.83
2018-11-23T20:27:42.098Z,54.37
2018-11-23T20:30:12.762Z,42.87
2018-11-23T20:32:41.375Z,47.87
2018-11-23T20:35:11.520Z,49.40
2018-11-23T20:37:39.695Z,52.17
2018-11-23T20:40:12.408Z,46.47
2018-11-23T20:42:40.923Z,51.17
2018-11-23T20:45:10.363Z,48.50
2018-11-23T20:47:38.592Z,47.00
2018-11-23T20:50:15.637Z,46.53
2018-11-23T20:52:43.845Z,48.87
2018-11-23T20:55:26.896Z,51.17
2018-11-23T20:57:55.071Z,51.30
2018-11-23T21:00:23.210Z,48.90
2018-11-23T21:02:51.943Z,52.13
2018-11-23T21:05:20.967Z,53.27
2018-11-23T21:07:49.552Z,51.57
2018-11-23T21:10:22.932Z,48.47
2018-11-23T21:12:51.355Z,58.10
2018-11-23T21:15:21.856Z,49.83
2018-11-23T21:17:50.000Z,50.20
2018-11-23T21:20:18.196Z,51.80
2018-11-23T21:22:46.305Z,49.43
2018-11-23T21:25:14.473Z,51.47
2018-11-23T21:27:42.742Z,48.43
2018-11-23T21:30:14.989Z,45.70
2018-11-23T21:32:43.319Z,48.83
2018-11-23T21:35:11.959Z,50.47
2018-11-23T21:37:40.118Z,53.63
2018-11-23T21:40:09.531Z,49.73
2018-11-23T21:42:37.707Z,52.30
2018-11-23T21:45:08.127Z,47.53
2018-11-23T21:47:36.665Z,45.57
2018-11-23T21:50:09.608Z,45.03
2018-11-23T21:52:37.707Z,46.63
2018-11-23T21:55:08.070Z,47.17
2018-11-23T21:57:36.186Z,48.73
2018-11-23T22:00:05.486Z,46.73
2018-11-23T22:02:33.655Z,49.67
2018-11-23T22:05:01.893Z,48.60
2018-11-23T22:07:30.019Z,48.37
2018-11-23T22:09:58.173Z,48.50
2018-11-23T22:12:37.021Z,46.33
2018-11-23T22:15:06.379Z,46.60
2018-11-23T22:17:34.720Z,51.53
2018-11-23T22:20:03.254Z,49.27
2018-11-23T22:22:31.540Z,55.30
2018-11-23T22:24:59.826Z,46.17
2018-11-23T22:27:27.999Z,49.83
2018-11-23T22:29:56.178Z,46.10
2018-11-23T22:32:24.302Z,49.67
2018-11-23T22:34:52.401Z,56.77
2018-11-23T22:37:20.644Z,54.77
2018-11-23T22:39:48.776Z,47.07
2018-11-23T22:42:16.927Z,45.93
2018-11-23T22:44:45.121Z,41.40
2018-11-23T22:47:13.277Z,40.77
2018-11-23T22:49:41.611Z,44.00
2018-11-23T22:52:09.725Z,44.00
2018-11-23T22:54:37.896Z,41.13
2018-11-23T22:57:11.613Z,42.43
2018-11-23T22:59:34.306Z,44.10
2018-11-23T23:02:02.504Z,40.70
2018-11-23T23:04:30.645Z,38.23
2018-11-23T23:06:58.822Z,40.80
2018-11-23T23:09:26.948Z,45.27
2018-11-23T23:11:55.193Z,43.10
2018-11-23T23:14:23.304Z,41.13
2018-11-23T23:16:51.430Z,43.13
2018-11-23T23:19:19.607Z,40.67
2018-11-23T23:21:47.734Z,39.57
2018-11-23T23:24:16.725Z,42.27
2018-11-23T23:26:44.970Z,39.30
2018-11-23T23:29:13.213Z,37.87
2018-11-23T23:31:41.496Z,45.10
2018-11-23T23:34:09.663Z,44.70
2018-11-23T23:36:37.930Z,39.70
2018-11-23T23:39:07.643Z,43.47
2018-11-23T23:41:35.930Z,42.23
2018-11-23T23:44:12.732Z,42.03
2018-11-23T23:46:41.061Z,47.00
2018-11-23T23:49:09.615Z,46.57
2018-11-23T23:51:37.743Z,40.33
2018-11-23T23:54:05.897Z,45.43
2018-11-23T23:56:34.023Z,41.73
2018-11-23T23:59:02.236Z,42.20
